createdAt,value
2022-11-05T00:08:56.723Z,2.33
2022-11-05T00:11:59.007Z,3.17
2022-11-05T00:15:10.660Z,2.40
2022-11-05T00:17:49.983Z,2.60
2022-11-05T00:21:22.973Z,2.13
2022-11-05T00:24:24.128Z,3.10
2022-11-05T00:29:45.818Z,2.45
2022-11-05T00:32:13.534Z,2.80
2022-11-05T00:34:59.043Z,2.97
2022-11-05T00:41:21.610Z,2.53
2022-11-05T00:50:46.349Z,2.88
2022-11-05T00:56:30.383Z,3.30
2022-11-05T00:59:21.102Z,2.70
2022-11-05T01:01:48.464Z,3.85
2022-11-05T01:04:15.821Z,3.33
2022-11-05T01:07:14.279Z,3.88
2022-11-05T01:10:05.287Z,2.60
2022-11-05T01:12:49.496Z,2.53
2022-11-05T01:18:39.025Z,2.80
2022-11-05T01:21:29.600Z,3.38
2022-11-05T01:24:17.716Z,3.25
2022-11-05T01:26:51.228Z,3.42
2022-11-05T01:29:54.796Z,3.25
2022-11-05T01:42:23.003Z,3.95
2022-11-05T01:45:42.570Z,3.38
2022-11-05T01:49:03.323Z,4.00
2022-11-05T01:51:57.256Z,4.05
2022-11-05T02:01:12.862Z,3.53
2022-11-05T02:07:49.241Z,3.60
2022-11-05T02:13:41.341Z,3.55
2022-11-05T02:16:58.389Z,3.55
2022-11-05T02:20:00.041Z,3.60
2022-11-05T02:23:16.861Z,4.10
2022-11-05T02:25:55.774Z,4.07
2022-11-05T02:28:45.253Z,3.67
2022-11-05T02:32:16.774Z,4.03
2022-11-05T02:35:34.688Z,4.38
2022-11-05T02:38:18.571Z,4.45
2022-11-05T02:45:07.928Z,4.57
2022-11-05T02:48:20.907Z,4.10
2022-11-05T02:51:35.030Z,4.65
2022-11-05T02:54:16.476Z,4.43
2022-11-05T02:57:14.641Z,3.83
2022-11-05T02:59:48.097Z,4.75
2022-11-05T03:02:15.600Z,4.63
2022-11-05T03:05:33.168Z,4.32
2022-11-05T03:08:13.011Z,4.78
2022-11-05T03:11:16.730Z,4.22
2022-11-05T03:14:20.118Z,4.32
2022-11-05T03:16:56.771Z,4.20
2022-11-05T03:19:33.369Z,4.50
2022-11-05T03:23:25.753Z,4.57
2022-11-05T03:26:20.065Z,4.10
2022-11-05T03:29:36.908Z,4.57
2022-11-05T03:32:19.072Z,3.70
2022-11-05T03:35:38.735Z,4.28
2022-11-05T03:38:39.831Z,4.43
2022-11-05T03:41:24.535Z,4.60
2022-11-05T03:48:30.551Z,4.80
2022-11-05T03:51:35.374Z,4.45
2022-11-05T03:54:04.500Z,4.18
2022-11-05T03:56:50.101Z,4.38
2022-11-05T04:03:16.843Z,4.65
2022-11-05T04:05:44.500Z,5.25
2022-11-05T04:08:30.932Z,4.50
2022-11-05T04:11:36.712Z,4.70
2022-11-05T04:14:55.687Z,5.28
2022-11-05T04:17:22.827Z,5.40
2022-11-05T04:20:36.661Z,4.80
2022-11-05T04:26:56.632Z,4.50
2022-11-05T04:32:33.959Z,5.20
2022-11-05T04:35:04.252Z,4.65
2022-11-05T04:37:57.056Z,5.00
2022-11-05T04:40:24.805Z,4.68
2022-11-05T04:42:55.953Z,5.00
2022-11-05T04:46:01.816Z,5.07
2022-11-05T04:48:50.981Z,4.55
2022-11-05T04:51:27.288Z,4.20
2022-11-05T04:54:13.007Z,4.80
2022-11-05T04:57:07.409Z,4.97
2022-11-05T05:00:07.928Z,5.07
2022-11-05T05:02:41.263Z,4.95
2022-11-05T05:05:34.698Z,4.53
2022-11-05T05:12:17.532Z,4.78
2022-11-05T05:16:25.347Z,5.18
2022-11-05T05:18:33.575Z,4.78
2022-11-05T05:21:25.340Z,4.30
2022-11-05T05:24:13.651Z,4.43
2022-11-05T05:26:56.658Z,5.32
2022-11-05T05:29:44.341Z,4.47
2022-11-05T05:32:11.423Z,4.93
2022-11-05T05:34:47.872Z,4.45
2022-11-05T05:41:24.163Z,4.13
2022-11-05T05:43:57.543Z,4.40
2022-11-05T05:46:42.023Z,4.37
2022-11-05T05:52:27.578Z,4.50
2022-11-05T05:55:03.890Z,3.92
2022-11-05T05:58:11.628Z,4.38
2022-11-05T06:00:41.670Z,4.95
2022-11-05T06:07:35.963Z,4.57
2022-11-05T06:10:04.852Z,4.23
2022-11-05T06:12:31.975Z,4.80
2022-11-05T06:15:08.509Z,4.22
2022-11-05T06:17:38.586Z,4.40
2022-11-05T06:20:29.382Z,4.70
2022-11-05T06:22:58.019Z,4.40
2022-11-05T06:25:38.534Z,5.60
2022-11-05T06:28:19.070Z,7.10
2022-11-05T06:30:53.462Z,4.55
2022-11-05T06:33:29.959Z,4.50
2022-11-05T06:36:22.268Z,4.55
2022-11-05T06:39:40.881Z,4.10
2022-11-05T06:42:33.045Z,4.80
2022-11-05T06:45:00.215Z,4.50
2022-11-05T06:47:27.380Z,4.45
2022-11-05T06:50:22.532Z,4.22
2022-11-05T06:53:13.899Z,4.13
2022-11-05T06:58:48.517Z,4.35
2022-11-05T07:02:07.457Z,4.35
2022-11-05T07:05:26.297Z,4.40
2022-11-05T07:07:58.743Z,4.40
2022-11-05T07:11:15.850Z,5.00
2022-11-05T07:18:23.760Z,3.72
2022-11-05T07:21:57.701Z,4.72
2022-11-05T07:25:06.299Z,4.88
2022-11-05T07:28:31.925Z,4.45
2022-11-05T07:31:01.961Z,4.05
2022-11-05T07:44:03.986Z,4.03
2022-11-05T07:46:31.151Z,5.10
2022-11-05T07:48:58.317Z,4.40
2022-11-05T07:51:51.442Z,4.20
2022-11-05T07:54:18.660Z,4.55
2022-11-05T07:56:49.601Z,4.47
2022-11-05T08:06:33.529Z,4.68
2022-11-05T08:10:00.171Z,4.20
2022-11-05T08:12:59.832Z,3.75
2022-11-05T08:15:45.340Z,3.95
2022-11-05T08:18:38.320Z,4.25
2022-11-05T08:21:52.330Z,3.92
2022-11-05T08:27:29.569Z,3.50
2022-11-05T08:30:24.105Z,3.72
2022-11-05T08:32:51.786Z,4.28
2022-11-05T08:35:22.464Z,3.65
2022-11-05T08:38:19.792Z,4.70
2022-11-05T08:40:56.245Z,3.72
2022-11-05T08:43:25.634Z,3.80
2022-11-05T08:45:52.932Z,4.20
2022-11-05T08:48:50.998Z,3.85
2022-11-05T08:51:48.792Z,3.15
2022-11-05T08:54:16.257Z,3.97
2022-11-05T08:57:38.797Z,3.10
2022-11-05T09:00:36.408Z,2.85
2022-11-05T09:03:39.172Z,3.00
2022-11-05T09:06:03.943Z,3.30
2022-11-05T09:08:50.359Z,3.35
2022-11-05T09:14:04.099Z,4.65
2022-11-05T09:16:36.952Z,3.72
2022-11-05T09:19:57.031Z,3.03
2022-11-05T09:22:47.252Z,2.45
2022-11-05T09:28:42.786Z,2.65
2022-11-05T09:44:53.931Z,4.15
2022-11-05T09:47:36.884Z,2.15
2022-11-05T09:50:35.772Z,2.50
2022-11-05T09:53:08.504Z,3.03
2022-11-05T09:55:57.192Z,2.55
2022-11-05T09:58:39.512Z,2.30
2022-11-05T10:01:15.131Z,2.00
2022-11-05T10:04:05.519Z,1.83
2022-11-05T10:06:53.410Z,2.40
2022-11-05T10:09:36.775Z,2.55
2022-11-05T10:12:27.657Z,2.05
2022-11-05T10:15:37.295Z,2.20
2022-11-05T10:18:17.657Z,2.85
2022-11-05T10:20:59.538Z,2.50
2022-11-05T10:23:37.282Z,2.67
2022-11-05T10:26:25.104Z,1.95
2022-11-05T10:28:53.666Z,1.95
2022-11-05T10:31:25.368Z,2.10
2022-11-05T10:34:04.417Z,1.50
2022-11-05T10:36:53.878Z,2.10
2022-11-05T10:39:24.548Z,1.85
2022-11-05T10:42:24.431Z,1.73
2022-11-05T10:45:33.683Z,1.70
2022-11-05T10:48:44.334Z,1.85
2022-11-05T10:51:12.994Z,1.65
2022-11-05T10:54:16.257Z,1.58
2022-11-05T10:56:52.163Z,1.60
2022-11-05T10:59:26.181Z,1.52
2022-11-05T11:02:23.843Z,1.73
2022-11-05T11:05:01.475Z,1.98
2022-11-05T11:07:29.099Z,1.33
2022-11-05T11:10:24.448Z,2.30
2022-11-05T11:12:53.138Z,1.85
2022-11-05T11:15:38.671Z,1.98
2022-11-05T11:18:42.080Z,2.00
2022-11-05T11:21:22.507Z,2.08
2022-11-05T11:24:19.958Z,2.17
2022-11-05T11:26:47.528Z,2.22
2022-11-05T11:29:28.920Z,1.83
2022-11-05T11:31:59.204Z,2.20
2022-11-05T11:34:34.445Z,2.03
2022-11-05T11:37:19.156Z,1.77
2022-11-05T11:40:13.338Z,1.88
2022-11-05T11:42:44.291Z,2.78
2022-11-05T11:45:20.171Z,1.90
2022-11-05T11:47:49.902Z,2.42
2022-11-05T11:50:45.128Z,2.25
2022-11-05T11:53:21.191Z,2.28
2022-11-05T11:56:15.789Z,2.15
2022-11-05T11:58:44.462Z,2.20
2022-11-05T12:01:45.243Z,2.53
2022-11-05T12:04:40.165Z,2.58
2022-11-05T12:07:37.239Z,2.17
2022-11-05T12:10:36.353Z,2.00
2022-11-05T12:13:20.961Z,2.58
2022-11-05T12:15:56.680Z,2.35
2022-11-05T12:18:45.752Z,2.55
2022-11-05T12:21:52.077Z,2.72
2022-11-05T12:24:48.012Z,2.03
2022-11-05T12:30:16.645Z,2.60
2022-11-05T12:33:13.049Z,2.00
2022-11-05T12:35:57.556Z,2.38
2022-11-05T12:38:32.992Z,2.08
2022-11-05T12:41:29.713Z,2.08
2022-11-05T12:44:14.443Z,2.35
2022-11-05T12:47:03.158Z,2.00
2022-11-05T12:49:53.714Z,2.30
2022-11-05T12:52:33.124Z,2.10
2022-11-05T12:55:18.985Z,1.80
2022-11-05T12:57:49.368Z,1.80
2022-11-05T13:00:21.392Z,2.00
2022-11-05T13:03:07.549Z,2.10
2022-11-05T13:05:38.971Z,1.95
2022-11-05T13:08:19.074Z,2.30
2022-11-05T13:10:52.495Z,2.80
2022-11-05T13:13:31.317Z,3.07
2022-11-05T13:16:12.388Z,2.60
2022-11-05T13:19:00.779Z,2.70
2022-11-05T13:21:31.596Z,4.13
2022-11-05T13:24:07.658Z,6.05
2022-11-05T13:26:52.933Z,4.20
2022-11-05T13:29:34.490Z,5.00
2022-11-05T13:32:13.432Z,2.90
2022-11-05T13:34:40.793Z,2.70
2022-11-05T13:37:28.180Z,3.28
2022-11-05T13:40:00.713Z,3.42
2022-11-05T13:42:53.219Z,2.78
2022-11-05T13:46:04.417Z,2.72
2022-11-05T13:48:43.526Z,2.60
2022-11-05T13:51:26.754Z,2.75
2022-11-05T13:54:21.021Z,2.63
2022-11-05T13:57:02.412Z,2.50
2022-11-05T14:00:02.788Z,3.38
2022-11-05T14:02:40.460Z,2.75
2022-11-05T14:05:22.093Z,2.25
2022-11-05T14:07:50.022Z,3.10
2022-11-05T14:10:41.554Z,2.30
2022-11-05T14:13:20.454Z,3.53
2022-11-05T14:20:19.108Z,2.58
2022-11-05T14:23:32.966Z,2.60
2022-11-05T14:26:26.208Z,2.65
2022-11-05T14:29:05.823Z,2.55
2022-11-05T14:32:08.768Z,2.72
2022-11-05T14:38:44.422Z,2.80
2022-11-05T14:41:14.322Z,3.35
2022-11-05T14:43:50.928Z,2.83
2022-11-05T14:46:21.370Z,3.00
2022-11-05T14:49:08.130Z,3.10
2022-11-05T14:51:42.638Z,2.22
2022-11-05T14:57:53.092Z,2.05
2022-11-05T15:00:29.898Z,2.78
2022-11-05T15:03:03.627Z,2.35
2022-11-05T15:05:51.630Z,3.13
2022-11-05T15:08:35.872Z,2.88
2022-11-05T15:11:32.996Z,2.72
2022-11-05T15:14:18.385Z,2.38
2022-11-05T15:16:52.447Z,2.97
2022-11-05T15:21:59.578Z,2.60
2022-11-05T15:24:28.434Z,2.88
2022-11-05T15:27:27.510Z,2.55
2022-11-05T15:29:55.114Z,2.90
2022-11-05T15:32:25.963Z,2.80
2022-11-05T15:34:55.997Z,3.20
2022-11-05T15:37:31.798Z,3.20
2022-11-05T15:39:59.808Z,2.95
2022-11-05T15:42:35.424Z,2.42
2022-11-05T15:45:04.092Z,3.08
2022-11-05T15:47:34.449Z,2.80
2022-11-05T15:50:14.938Z,2.40
2022-11-05T15:52:53.938Z,2.60
2022-11-05T15:55:24.491Z,2.70
2022-11-05T15:57:58.811Z,2.83
2022-11-05T16:00:31.425Z,2.55
2022-11-05T16:03:04.905Z,3.20
2022-11-05T16:05:57.499Z,2.88
2022-11-05T16:08:32.085Z,2.90
2022-11-05T16:11:01.290Z,3.17
2022-11-05T16:13:32.236Z,2.92
2022-11-05T16:16:05.258Z,7.75
2022-11-05T16:18:41.855Z,4.50
2022-11-05T16:21:23.453Z,3.80
2022-11-05T16:23:57.412Z,4.30
2022-11-05T16:27:01.828Z,3.28
2022-11-05T16:29:40.529Z,3.80
2022-11-05T16:32:21.370Z,3.30
2022-11-05T16:34:55.969Z,3.45
2022-11-05T16:37:51.793Z,3.45
2022-11-05T16:40:23.531Z,3.60
2022-11-05T16:42:53.077Z,3.42
2022-11-05T16:45:23.204Z,3.60
2022-11-05T16:47:54.972Z,3.67
2022-11-05T16:50:33.082Z,3.22
2022-11-05T16:53:03.179Z,3.55
2022-11-05T16:55:33.346Z,4.60
2022-11-05T16:58:19.811Z,4.63
2022-11-05T17:00:51.289Z,4.40
2022-11-05T17:03:19.478Z,4.50
2022-11-05T17:05:47.391Z,4.88
2022-11-05T17:08:18.542Z,4.47
2022-11-05T17:10:46.364Z,3.90
2022-11-05T17:13:23.128Z,3.95
2022-11-05T17:15:58.208Z,4.47
2022-11-05T17:18:28.119Z,4.22
2022-11-05T17:21:06.906Z,4.25
2022-11-05T17:23:37.560Z,4.35
2022-11-05T17:26:14.735Z,4.30
2022-11-05T17:28:42.715Z,5.05
2022-11-05T17:31:22.627Z,5.22
2022-11-05T17:34:06.591Z,5.75
2022-11-05T17:36:40.728Z,5.13
2022-11-05T17:45:11.377Z,5.97
2022-11-05T17:48:01.096Z,5.57
2022-11-05T17:53:38.555Z,5.68
2022-11-05T17:56:11.691Z,5.20
2022-11-05T17:58:46.556Z,5.83
2022-11-05T18:01:30.283Z,5.60
2022-11-05T18:04:10.947Z,4.97
2022-11-05T18:06:44.489Z,6.00
2022-11-05T18:09:16.912Z,5.18
2022-11-05T18:11:44.565Z,5.72
2022-11-05T18:14:22.821Z,5.55
2022-11-05T18:17:02.618Z,5.30
2022-11-05T18:19:38.446Z,5.60
2022-11-05T18:22:06.062Z,5.78
2022-11-05T18:24:38.637Z,6.50
2022-11-05T18:27:15.687Z,6.30
2022-11-05T18:29:52.353Z,7.03
2022-11-05T18:32:25.224Z,5.90
2022-11-05T18:35:01.573Z,6.30
2022-11-05T18:37:29.448Z,6.30
2022-11-05T18:40:06.507Z,6.03
2022-11-05T18:42:47.808Z,6.25
2022-11-05T18:45:23.260Z,6.30
2022-11-05T18:48:02.351Z,6.70
2022-11-05T18:50:40.413Z,6.40
2022-11-05T18:53:16.158Z,6.50
2022-11-05T18:55:53.711Z,6.60
2022-11-05T18:58:31.355Z,6.43
2022-11-05T19:01:06.335Z,6.88
2022-11-05T19:03:45.302Z,7.18
2022-11-05T19:06:16.521Z,7.20
2022-11-05T19:08:51.046Z,7.13
2022-11-05T19:11:28.833Z,7.03
2022-11-05T19:14:01.499Z,6.95
2022-11-05T19:16:45.741Z,6.25
2022-11-05T19:19:14.258Z,6.68
2022-11-05T19:21:44.361Z,6.97
2022-11-05T19:24:17.080Z,7.55
2022-11-05T19:26:49.802Z,7.90
2022-11-05T19:29:24.118Z,9.57
2022-11-05T19:31:55.298Z,8.63
2022-11-05T19:34:25.450Z,8.30
2022-11-05T19:36:59.568Z,7.88
2022-11-05T19:39:30.018Z,6.75
2022-11-05T19:42:03.127Z,7.05
2022-11-05T19:44:35.615Z,6.45
2022-11-05T19:47:16.691Z,7.15
2022-11-05T19:49:45.658Z,5.97
2022-11-05T19:52:23.619Z,6.75
2022-11-05T19:54:54.192Z,6.57
2022-11-05T19:57:33.897Z,7.28
2022-11-05T20:00:01.561Z,7.00
2022-11-05T20:02:39.343Z,7.25
2022-11-05T20:05:07.009Z,7.78
2022-11-05T20:07:37.925Z,7.45
2022-11-05T20:10:12.972Z,8.80
2022-11-05T20:12:43.625Z,7.03
2022-11-05T20:15:22.617Z,7.47
2022-11-05T20:18:12.532Z,7.47
2022-11-05T20:20:44.850Z,6.95
2022-11-05T20:23:20.153Z,7.03
2022-11-05T20:25:57.669Z,8.15
2022-11-05T20:28:27.601Z,6.97
2022-11-05T20:30:58.715Z,7.55
2022-11-05T20:33:28.164Z,7.85
2022-11-05T20:36:07.296Z,6.93
2022-11-05T20:38:38.233Z,7.22
2022-11-05T20:41:12.709Z,8.40
2022-11-05T20:43:47.057Z,8.02
2022-11-05T20:46:21.995Z,7.20
2022-11-05T20:48:53.819Z,7.57
2022-11-05T20:51:24.368Z,8.65
2022-11-05T20:54:07.150Z,8.15
2022-11-05T20:56:51.055Z,8.38
2022-11-05T20:59:20.398Z,7.60
2022-11-05T21:01:52.420Z,8.52
2022-11-05T21:04:23.743Z,8.45
2022-11-05T21:06:54.626Z,7.75
2022-11-05T21:09:22.445Z,8.63
2022-11-05T21:12:08.957Z,8.88
2022-11-05T21:14:44.083Z,8.32
2022-11-05T21:17:15.379Z,8.05
2022-11-05T21:19:44.080Z,8.30
2022-11-05T21:22:15.925Z,8.20
2022-11-05T21:24:49.703Z,8.18
2022-11-05T21:27:17.742Z,9.20
2022-11-05T21:29:45.499Z,9.00
2022-11-05T21:32:18.547Z,9.65
2022-11-05T21:34:46.187Z,10.23
2022-11-05T21:37:13.725Z,10.30
2022-11-05T21:39:50.563Z,9.25
2022-11-05T21:42:21.364Z,9.95
2022-11-05T21:44:49.372Z,12.23
2022-11-05T21:47:17.290Z,11.23
2022-11-05T21:49:44.982Z,10.70
2022-11-05T21:52:30.985Z,9.80
2022-11-05T21:55:16.760Z,11.93
2022-11-05T21:58:03.207Z,10.70
2022-11-05T22:00:30.930Z,11.23
2022-11-05T22:03:00.167Z,10.07
2022-11-05T22:05:28.078Z,11.13
2022-11-05T22:07:56.643Z,11.25
2022-11-05T22:10:24.660Z,11.15
2022-11-05T22:12:52.241Z,11.82
2022-11-05T22:15:20.242Z,11.15
2022-11-05T22:17:51.364Z,11.18
2022-11-05T22:20:21.348Z,10.93
2022-11-05T22:22:49.176Z,9.75
2022-11-05T22:25:16.890Z,12.93
2022-11-05T22:27:44.360Z,10.40
2022-11-05T22:30:15.488Z,10.02
2022-11-05T22:32:42.959Z,11.50
2022-11-05T22:35:10.634Z,9.95
2022-11-05T22:37:38.397Z,9.20
2022-11-05T22:40:06.130Z,8.27
2022-11-05T22:42:33.623Z,8.07
2022-11-05T22:45:04.159Z,7.95
2022-11-05T22:47:31.653Z,7.43
2022-11-05T22:49:59.625Z,8.05
2022-11-05T22:52:27.266Z,7.50
2022-11-05T22:54:54.756Z,7.10
2022-11-05T22:57:22.275Z,7.10
2022-11-05T22:59:50.060Z,6.88
2022-11-05T23:02:20.914Z,6.90
2022-11-05T23:04:51.066Z,7.38
2022-11-05T23:07:37.326Z,6.65
2022-11-05T23:10:23.557Z,6.80
2022-11-05T23:12:53.326Z,6.22
2022-11-05T23:15:50.149Z,5.97
2022-11-05T23:18:38.651Z,6.50
2022-11-05T23:21:24.951Z,6.05
2022-11-05T23:24:05.005Z,6.05
2022-11-05T23:26:50.254Z,6.00
2022-11-05T23:29:23.248Z,5.65
2022-11-05T23:32:12.441Z,5.68
2022-11-05T23:34:45.631Z,6.00
2022-11-05T23:37:32.993Z,5.53
2022-11-05T23:40:15.794Z,5.90
2022-11-05T23:43:04.883Z,5.05
2022-11-05T23:45:49.283Z,5.05
2022-11-05T23:48:17.106Z,5.00
2022-11-05T23:51:07.358Z,4.65
2022-11-05T23:53:43.232Z,5.20
2022-11-05T23:56:22.540Z,4.68
2022-11-05T23:58:53.327Z,4.93
